Pagrindinis puslapis
METAR-TAF:

METAR-TAF

Oro uostai :

Abu Simbelas, Egiptas

platuma: 22-22-33N, ilguma: 31-36-42E, Aukštis: 188 m

Dabartinis oras

Ataskaita buvo paskelbta 1 valandą ir 19 minutes, ne 02:00 UTC
Vėjas 10 kt iš Šiaurės
Temperatūra 10°C
Drėgmė 57%
Slėgis 1022 hPa
Matomumas 10 km arba daugiau
nėra debesų žemiau 1500 m ir nėra kamuolinių lietaus debesų

METAR: HEBL 210200Z 36010KT CAVOK 10/02 Q1022 NOSIG

Laikas: 05:19 (03:19 UTC)

Prognozė

Ataskaita buvo paskelbta 4 valandos ir 19 minutes, ne 23:00 UTC
Prognozė galioja nuo 21 metu 00 UTC su 22 metu 06 UTC
Vėjas 10 kt iš Šiaurės su gūsio iki 20 kt
Matomumas 10 km arba daugiau
nėra debesų žemiau 1500 m ir nėra kamuolinių lietaus debesų

TAF: HEBL 202300Z 2100/2206 35010G20KT CAVOK

Orai ataskaitas ir orų prognozės (METAR, TAF).

turimą stotys yra geltonos ir raudonos taškus žemėlapyje.

Perkelti pele per norėdami pamatyti stoties vardą.

Tada spustelėkite, norėdami matyti oro stebėjimo ir prognozės.

Norėdami pakeisti žemėlapį: spustelėkite ant žalios mygtukų su juodo kryžiaus žemyn,; žalią mygtuką su brūkšneliu, jei norite nutolinti; arba žalių rodyklių gretimoms žemėlapius.


METAR-TAF: